sensor_id;sensor_type;location;lat;lon;timestamp;pressure;altitude;pressure_sealevel;temperature;humidity
28312;BME280;15572;48.810;9.148;2023-01-23T00:00:03;99349.16;;;-0.27;100.00
28312;BME280;15572;48.810;9.148;2023-01-23T00:05:00;99342.13;;;-0.28;100.00
28312;BME280;15572;48.810;9.148;2023-01-23T00:09:57;99336.03;;;-0.30;100.00
28312;BME280;15572;48.810;9.148;2023-01-23T00:14:55;99334.16;;;-0.28;100.00
28312;BME280;15572;48.810;9.148;2023-01-23T00:19:52;99338.63;;;-0.29;100.00
28312;BME280;15572;48.810;9.148;2023-01-23T00:24:48;99345.66;;;-0.28;100.00
28312;BME280;15572;48.810;9.148;2023-01-23T00:29:44;99339.25;;;-0.25;100.00
28312;BME280;15572;48.810;9.148;2023-01-23T00:34:43;99336.81;;;-0.28;100.00
28312;BME280;15572;48.810;9.148;2023-01-23T00:39:39;99341.19;;;-0.27;100.00
28312;BME280;15572;48.810;9.148;2023-01-23T00:44:36;99333.06;;;-0.26;100.00
28312;BME280;15572;48.810;9.148;2023-01-23T00:49:33;99330.41;;;-0.26;100.00
28312;BME280;15572;48.810;9.148;2023-01-23T00:54:30;99332.13;;;-0.25;100.00
28312;BME280;15572;48.810;9.148;2023-01-23T00:59:27;99341.72;;;-0.22;100.00
28312;BME280;15572;48.810;9.148;2023-01-23T01:04:23;99332.75;;;-0.21;100.00
28312;BME280;15572;48.810;9.148;2023-01-23T01:09:20;99339.72;;;-0.19;100.00
28312;BME280;15572;48.810;9.148;2023-01-23T01:14:18;99345.03;;;-0.19;100.00
28312;BME280;15572;48.810;9.148;2023-01-23T01:19:15;99363.75;;;-0.20;100.00
28312;BME280;15572;48.810;9.148;2023-01-23T01:24:12;99356.00;;;-0.23;100.00
28312;BME280;15572;48.810;9.148;2023-01-23T01:29:08;99366.72;;;-0.25;100.00
28312;BME280;15572;48.810;9.148;2023-01-23T01:34:06;99368.53;;;-0.25;100.00
28312;BME280;15572;48.810;9.148;2023-01-23T01:39:03;99372.06;;;-0.25;100.00
28312;BME280;15572;48.810;9.148;2023-01-23T01:43:59;99372.06;;;-0.25;100.00
28312;BME280;15572;48.810;9.148;2023-01-23T01:49:08;99377.38;;;-0.25;100.00
28312;BME280;15572;48.810;9.148;2023-01-23T01:54:13;99368.53;;;-0.25;100.00
28312;BME280;15572;48.810;9.148;2023-01-23T01:59:12;99371.19;;;-0.25;100.00
28312;BME280;15572;48.810;9.148;2023-01-23T02:04:10;99372.91;;;-0.24;100.00
28312;BME280;15572;48.810;9.148;2023-01-23T02:09:10;99384.50;;;-0.25;100.00
28312;BME280;15572;48.810;9.148;2023-01-23T02:14:10;99393.34;;;-0.25;100.00
28312;BME280;15572;48.810;9.148;2023-01-23T02:19:19;99385.19;;;-0.22;100.00
28312;BME280;15572;48.810;9.148;2023-01-23T02:24:25;99381.44;;;-0.19;100.00
28312;BME280;15572;48.810;9.148;2023-01-23T02:29:39;99380.59;;;-0.20;100.00
28312;BME280;15572;48.810;9.148;2023-01-23T02:34:35;99385.91;;;-0.20;100.00
28312;BME280;15572;48.810;9.148;2023-01-23T02:39:32;99372.41;;;-0.17;100.00
28312;BME280;15572;48.810;9.148;2023-01-23T02:44:30;99373.28;;;-0.16;100.00
28312;BME280;15572;48.810;9.148;2023-01-23T02:49:27;99375.94;;;-0.16;100.00
28312;BME280;15572;48.810;9.148;2023-01-23T02:54:24;99377.84;;;-0.18;100.00
28312;BME280;15572;48.810;9.148;2023-01-23T02:59:21;99379.56;;;-0.17;100.00
28312;BME280;15572;48.810;9.148;2023-01-23T03:04:45;99380.50;;;-0.18;100.00
28312;BME280;15572;48.810;9.148;2023-01-23T03:09:41;99383.16;;;-0.18;100.00
28312;BME280;15572;48.810;9.148;2023-01-23T03:14:40;99369.84;;;-0.18;100.00
28312;BME280;15572;48.810;9.148;2023-01-23T03:19:37;99379.34;;;-0.14;100.00
28312;BME280;15572;48.810;9.148;2023-01-23T03:24:35;99385.44;;;-0.12;100.00
28312;BME280;15572;48.810;9.148;2023-01-23T03:29:31;99385.44;;;-0.12;100.00
28312;BME280;15572;48.810;9.148;2023-01-23T03:34:45;99380.19;;;-0.14;100.00
28312;BME280;15572;48.810;9.148;2023-01-23T03:39:43;99376.59;;;-0.13;100.00
28312;BME280;15572;48.810;9.148;2023-01-23T03:44:57;99376.59;;;-0.13;100.00
28312;BME280;15572;48.810;9.148;2023-01-23T03:49:54;99364.13;;;-0.12;100.00
28312;BME280;15572;48.810;9.148;2023-01-23T03:54:51;99372.13;;;-0.12;100.00
28312;BME280;15572;48.810;9.148;2023-01-23T03:59:48;99381.91;;;-0.13;100.00
28312;BME280;15572;48.810;9.148;2023-01-23T04:04:44;99370.41;;;-0.13;100.00
28312;BME280;15572;48.810;9.148;2023-01-23T04:09:41;99380.19;;;-0.14;100.00
28312;BME280;15572;48.810;9.148;2023-01-23T04:14:39;99380.41;;;-0.17;100.00
28312;BME280;15572;48.810;9.148;2023-01-23T04:19:35;99386.38;;;-0.13;100.00
28312;BME280;15572;48.810;9.148;2023-01-23T04:24:32;99404.16;;;-0.14;100.00
28312;BME280;15572;48.810;9.148;2023-01-23T04:29:28;99411.19;;;-0.13;100.00
28312;BME280;15572;48.810;9.148;2023-01-23T04:34:26;99405.88;;;-0.13;100.00
28312;BME280;15572;48.810;9.148;2023-01-23T04:39:23;99410.25;;;-0.12;100.00
28312;BME280;15572;48.810;9.148;2023-01-23T04:44:19;99409.25;;;-0.11;100.00
28312;BME280;15572;48.810;9.148;2023-01-23T04:49:16;99419.09;;;-0.11;100.00
28312;BME280;15572;48.810;9.148;2023-01-23T04:54:14;99420.91;;;-0.12;100.00
28312;BME280;15572;48.810;9.148;2023-01-23T04:59:12;99420.03;;;-0.12;100.00
28312;BME280;15572;48.810;9.148;2023-01-23T05:04:10;99420.13;;;-0.14;100.00
28312;BME280;15572;48.810;9.148;2023-01-23T05:09:06;99422.69;;;-0.12;100.00
28312;BME280;15572;48.810;9.148;2023-01-23T05:14:04;99422.78;;;-0.14;100.00
28312;BME280;15572;48.810;9.148;2023-01-23T05:19:01;99418.31;;;-0.13;100.00
28312;BME280;15572;48.810;9.148;2023-01-23T05:23:58;99428.13;;;-0.14;100.00
28312;BME280;15572;48.810;9.148;2023-01-23T05:28:54;99425.34;;;-0.12;100.00
28312;BME280;15572;48.810;9.148;2023-01-23T05:33:52;99429.81;;;-0.13;100.00
28312;BME280;15572;48.810;9.148;2023-01-23T05:38:48;99424.50;;;-0.13;100.00
28312;BME280;15572;48.810;9.148;2023-01-23T05:43:45;99427.16;;;-0.13;100.00
28312;BME280;15572;48.810;9.148;2023-01-23T05:48:47;99427.16;;;-0.13;100.00
28312;BME280;15572;48.810;9.148;2023-01-23T05:53:45;99425.44;;;-0.14;100.00
28312;BME280;15572;48.810;9.148;2023-01-23T05:58:42;99422.78;;;-0.14;100.00
28312;BME280;15572;48.810;9.148;2023-01-23T06:03:38;99433.34;;;-0.12;100.00
28312;BME280;15572;48.810;9.148;2023-01-23T06:08:35;99443.13;;;-0.13;100.00
28312;BME280;15572;48.810;9.148;2023-01-23T06:13:32;99442.19;;;-0.12;100.00
28312;BME280;15572;48.810;9.148;2023-01-23T06:18:29;99448.38;;;-0.11;100.00
28312;BME280;15572;48.810;9.148;2023-01-23T06:23:26;99450.91;;;-0.10;100.00
28312;BME280;15572;48.810;9.148;2023-01-23T06:28:22;99449.09;;;-0.09;100.00
28312;BME280;15572;48.810;9.148;2023-01-23T06:33:20;99457.00;;;-0.08;100.00
28312;BME280;15572;48.810;9.148;2023-01-23T06:38:16;99462.31;;;-0.08;100.00
28312;BME280;15572;48.810;9.148;2023-01-23T06:43:13;99480.19;;;-0.10;100.00
28312;BME280;15572;48.810;9.148;2023-01-23T06:48:09;99488.19;;;-0.10;100.00
28312;BME280;15572;48.810;9.148;2023-01-23T06:53:08;99495.22;;;-0.09;100.00
28312;BME280;15572;48.810;9.148;2023-01-23T06:58:07;99495.06;;;-0.06;100.00
28312;BME280;15572;48.810;9.148;2023-01-23T07:03:03;99503.78;;;-0.04;100.00
28312;BME280;15572;48.810;9.148;2023-01-23T07:08:00;99508.06;;;-0.01;100.00
28312;BME280;15572;48.810;9.148;2023-01-23T07:12:58;99513.25;;;0.00;100.00
28312;BME280;15572;48.810;9.148;2023-01-23T07:17:54;99521.06;;;0.04;100.00
28312;BME280;15572;48.810;9.148;2023-01-23T07:22:51;99516.69;;;0.03;100.00
28312;BME280;15572;48.810;9.148;2023-01-23T07:27:47;99529.94;;;0.04;100.00
28312;BME280;15572;48.810;9.148;2023-01-23T07:32:45;99525.34;;;0.06;100.00
28312;BME280;15572;48.810;9.148;2023-01-23T07:37:42;99530.66;;;0.06;100.00
28312;BME280;15572;48.810;9.148;2023-01-23T07:42:38;99535.81;;;0.09;100.00
28312;BME280;15572;48.810;9.148;2023-01-23T07:47:36;99532.94;;;0.12;100.00
28312;BME280;15572;48.810;9.148;2023-01-23T07:52:35;99523.03;;;0.14;100.00
28312;BME280;15572;48.810;9.148;2023-01-23T07:57:31;99532.84;;;0.14;100.00
28312;BME280;15572;48.810;9.148;2023-01-23T08:02:28;99533.50;;;0.17;100.00
28312;BME280;15572;48.810;9.148;2023-01-23T08:07:24;99528.94;;;0.19;100.00
28312;BME280;15572;48.810;9.148;2023-01-23T08:12:22;99533.59;;;0.16;100.00
28312;BME280;15572;48.810;9.148;2023-01-23T08:17:19;99524.25;;;0.23;100.00
28312;BME280;15572;48.810;9.148;2023-01-23T08:22:15;99525.00;;;0.25;100.00
28312;BME280;15572;48.810;9.148;2023-01-23T08:27:12;99533.34;;;0.33;100.00
28312;BME280;15572;48.810;9.148;2023-01-23T08:32:09;99523.38;;;0.49;100.00
28312;BME280;15572;48.810;9.148;2023-01-23T08:37:06;99523.28;;;0.51;100.00
28312;BME280;15572;48.810;9.148;2023-01-23T08:42:03;99513.28;;;0.54;100.00
28312;BME280;15572;48.810;9.148;2023-01-23T08:47:00;99525.56;;;0.57;100.00
28312;BME280;15572;48.810;9.148;2023-01-23T08:51:58;99519.28;;;0.58;100.00
28312;BME280;15572;48.810;9.148;2023-01-23T08:56:55;99524.38;;;0.61;100.00
28312;BME280;15572;48.810;9.148;2023-01-23T09:01:51;99518.00;;;0.63;100.00
28312;BME280;15572;48.810;9.148;2023-01-23T09:06:47;99526.56;;;0.81;100.00
28312;BME280;15572;48.810;9.148;2023-01-23T09:11:45;99531.63;;;0.98;100.00
28312;BME280;15572;48.810;9.148;2023-01-23T09:16:42;99521.50;;;0.91;100.00
28312;BME280;15572;48.810;9.148;2023-01-23T09:21:38;99528.22;;;0.96;100.00
28312;BME280;15572;48.810;9.148;2023-01-23T09:26:42;99516.59;;;1.10;100.00
28312;BME280;15572;48.810;9.148;2023-01-23T09:31:49;99533.78;;;1.31;100.00
28312;BME280;15572;48.810;9.148;2023-01-23T09:36:46;99526.44;;;1.22;100.00
28312;BME280;15572;48.810;9.148;2023-01-23T09:42:08;99539.09;;;1.18;100.00
28312;BME280;15572;48.810;9.148;2023-01-23T09:47:27;99539.66;;;1.11;100.00
28312;BME280;15572;48.810;9.148;2023-01-23T09:52:33;99522.25;;;1.05;100.00
28312;BME280;15572;48.810;9.148;2023-01-23T09:57:58;99547.75;;;1.09;100.00
28312;BME280;15572;48.810;9.148;2023-01-23T10:03:15;99534.19;;;1.12;100.00
28312;BME280;15572;48.810;9.148;2023-01-23T10:11:31;99545.22;;;1.20;100.00
28312;BME280;15572;48.810;9.148;2023-01-23T10:20:46;99542.00;;;1.66;100.00
28312;BME280;15572;48.810;9.148;2023-01-23T10:25:56;99550.00;;;1.66;100.00
28312;BME280;15572;48.810;9.148;2023-01-23T10:30:56;99535.41;;;1.59;100.00
28312;BME280;15572;48.810;9.148;2023-01-23T10:36:00;99533.22;;;1.89;100.00
28312;BME280;15572;48.810;9.148;2023-01-23T10:40:57;99530.13;;;2.19;100.00
28312;BME280;15572;48.810;9.148;2023-01-23T10:46:15;99528.88;;;2.12;100.00
28312;BME280;15572;48.810;9.148;2023-01-23T10:51:42;99526.59;;;1.82;100.00
28312;BME280;15572;48.810;9.148;2023-01-23T10:56:47;99521.16;;;1.71;100.00
28312;BME280;15572;48.810;9.148;2023-01-23T11:01:54;99524.16;;;1.66;100.00
28312;BME280;15572;48.810;9.148;2023-01-23T11:07:05;99524.72;;;1.59;100.00
28312;BME280;15572;48.810;9.148;2023-01-23T11:12:04;99511.59;;;1.43;100.00
28312;BME280;15572;48.810;9.148;2023-01-23T11:17:02;99510.94;;;1.40;100.00
28312;BME280;15572;48.810;9.148;2023-01-23T11:22:03;99507.75;;;1.47;100.00
28312;BME280;15572;48.810;9.148;2023-01-23T11:27:02;99508.16;;;1.54;100.00
28312;BME280;15572;48.810;9.148;2023-01-23T11:32:01;99502.28;;;1.61;100.00
28312;BME280;15572;48.810;9.148;2023-01-23T11:37:06;99489.56;;;1.65;100.00
28312;BME280;15572;48.810;9.148;2023-01-23T11:42:08;99488.28;;;1.71;100.00
28312;BME280;15572;48.810;9.148;2023-01-23T11:47:32;99487.00;;;1.76;100.00
28312;BME280;15572;48.810;9.148;2023-01-23T11:52:46;99484.97;;;1.67;100.00
28312;BME280;15572;48.810;9.148;2023-01-23T11:57:54;99481.34;;;1.55;100.00
28312;BME280;15572;48.810;9.148;2023-01-23T12:03:32;99478.16;;;1.50;100.00
28312;BME280;15572;48.810;9.148;2023-01-23T12:08:36;99482.00;;;1.46;100.00
28312;BME280;15572;48.810;9.148;2023-01-23T12:13:48;99484.91;;;1.43;100.00
28312;BME280;15572;48.810;9.148;2023-01-23T12:19:09;99486.91;;;1.52;100.00
28312;BME280;15572;48.810;9.148;2023-01-23T12:24:16;99474.53;;;1.51;100.00
28312;BME280;15572;48.810;9.148;2023-01-23T12:29:35;99450.59;;;1.62;100.00
28312;BME280;15572;48.810;9.148;2023-01-23T12:34:44;99445.69;;;1.93;100.00
28312;BME280;15572;48.810;9.148;2023-01-23T12:39:55;99435.28;;;2.25;100.00
28312;BME280;15572;48.810;9.148;2023-01-23T12:44:58;99426.25;;;2.38;100.00
28312;BME280;15572;48.810;9.148;2023-01-23T12:50:00;99423.50;;;2.51;100.00
28312;BME280;15572;48.810;9.148;2023-01-23T12:55:02;99410.28;;;2.61;100.00
28312;BME280;15572;48.810;9.148;2023-01-23T13:00:08;99403.19;;;2.48;100.00
28312;BME280;15572;48.810;9.148;2023-01-23T13:05:15;99411.06;;;2.39;100.00
28312;BME280;15572;48.810;9.148;2023-01-23T13:10:32;99409.94;;;2.30;100.00
28312;BME280;15572;48.810;9.148;2023-01-23T13:16:01;99399.53;;;2.38;100.00
28312;BME280;15572;48.810;9.148;2023-01-23T13:20:58;99398.31;;;2.42;100.00
28312;BME280;15572;48.810;9.148;2023-01-23T13:26:28;99394.00;;;2.64;100.00
28312;BME280;15572;48.810;9.148;2023-01-23T13:31:32;99399.38;;;2.75;100.00
28312;BME280;15572;48.810;9.148;2023-01-23T13:36:32;99403.97;;;2.73;100.00
28312;BME280;15572;48.810;9.148;2023-01-23T13:41:31;99402.38;;;2.59;100.00
28312;BME280;15572;48.810;9.148;2023-01-23T13:46:36;99404.16;;;2.47;100.00
28312;BME280;15572;48.810;9.148;2023-01-23T13:51:36;99401.59;;;2.46;100.00
28312;BME280;15572;48.810;9.148;2023-01-23T13:56:35;99381.31;;;2.43;100.00
28312;BME280;15572;48.810;9.148;2023-01-23T14:01:47;99391.53;;;2.49;100.00
28312;BME280;15572;48.810;9.148;2023-01-23T14:07:03;99403.06;;;2.39;100.00
28312;BME280;15572;48.810;9.148;2023-01-23T14:12:03;99403.06;;;2.39;100.00
28312;BME280;15572;48.810;9.148;2023-01-23T14:17:00;99396.50;;;2.43;100.00
28312;BME280;15572;48.810;9.148;2023-01-23T14:21:58;99393.81;;;2.43;100.00
28312;BME280;15572;48.810;9.148;2023-01-23T14:26:59;99404.47;;;2.32;100.00
28312;BME280;15572;48.810;9.148;2023-01-23T14:31:57;99412.44;;;2.21;100.00
28312;BME280;15572;48.810;9.148;2023-01-23T14:37:00;99412.44;;;2.21;100.00
28312;BME280;15572;48.810;9.148;2023-01-23T14:41:59;99403.31;;;2.12;100.00
28312;BME280;15572;48.810;9.148;2023-01-23T14:46:58;99386.97;;;2.04;100.00
28312;BME280;15572;48.810;9.148;2023-01-23T14:51:58;99390.25;;;1.96;100.00
28312;BME280;15572;48.810;9.148;2023-01-23T14:56:56;99387.31;;;1.99;100.00
28312;BME280;15572;48.810;9.148;2023-01-23T15:01:54;99402.00;;;1.94;100.00
28312;BME280;15572;48.810;9.148;2023-01-23T15:06:53;99389.59;;;1.93;100.00
28312;BME280;15572;48.810;9.148;2023-01-23T15:11:51;99389.59;;;1.93;100.00
28312;BME280;15572;48.810;9.148;2023-01-23T15:16:48;99396.25;;;1.87;100.00
28312;BME280;15572;48.810;9.148;2023-01-23T15:21:46;99390.91;;;1.87;100.00
28312;BME280;15572;48.810;9.148;2023-01-23T15:26:56;99392.94;;;1.84;100.00
28312;BME280;15572;48.810;9.148;2023-01-23T15:31:53;99389.53;;;1.82;100.00
28312;BME280;15572;48.810;9.148;2023-01-23T15:36:54;99404.50;;;1.84;100.00
28312;BME280;15572;48.810;9.148;2023-01-23T15:41:55;99405.78;;;1.79;100.00
28312;BME280;15572;48.810;9.148;2023-01-23T15:46:52;99401.84;;;1.72;100.00
28312;BME280;15572;48.810;9.148;2023-01-23T15:51:49;99406.34;;;1.71;100.00
28312;BME280;15572;48.810;9.148;2023-01-23T15:56:46;99412.88;;;1.67;100.00
28312;BME280;15572;48.810;9.148;2023-01-23T16:01:44;99420.38;;;1.62;100.00
28312;BME280;15572;48.810;9.148;2023-01-23T16:06:40;99418.88;;;1.58;100.00
28312;BME280;15572;48.810;9.148;2023-01-23T16:11:37;99425.09;;;1.58;100.00
28312;BME280;15572;48.810;9.148;2023-01-23T16:16:35;99424.97;;;1.60;100.00
28312;BME280;15572;48.810;9.148;2023-01-23T16:21:33;99439.28;;;1.59;100.00
28312;BME280;15572;48.810;9.148;2023-01-23T16:26:29;99440.16;;;1.59;100.00
28312;BME280;15572;48.810;9.148;2023-01-23T16:31:26;99431.91;;;1.62;100.00
28312;BME280;15572;48.810;9.148;2023-01-23T16:36:22;99439.16;;;1.60;100.00
28312;BME280;15572;48.810;9.148;2023-01-23T16:41:20;99432.75;;;1.63;100.00
28312;BME280;15572;48.810;9.148;2023-01-23T16:46:17;99439.91;;;1.62;100.00
28312;BME280;15572;48.810;9.148;2023-01-23T16:51:17;99442.81;;;1.47;100.00
28312;BME280;15572;48.810;9.148;2023-01-23T16:56:20;99439.63;;;1.42;100.00
28312;BME280;15572;48.810;9.148;2023-01-23T17:01:19;99441.34;;;1.43;100.00
28312;BME280;15572;48.810;9.148;2023-01-23T17:06:16;99441.44;;;1.41;100.00
28312;BME280;15572;48.810;9.148;2023-01-23T17:11:17;99447.75;;;1.40;100.00
28312;BME280;15572;48.810;9.148;2023-01-23T17:16:16;99445.41;;;1.48;100.00
28312;BME280;15572;48.810;9.148;2023-01-23T17:21:16;99461.84;;;1.55;100.00
28312;BME280;15572;48.810;9.148;2023-01-23T17:26:17;99456.16;;;1.47;100.00
28312;BME280;15572;48.810;9.148;2023-01-23T17:31:19;99460.44;;;1.49;100.00
28312;BME280;15572;48.810;9.148;2023-01-23T17:36:17;99469.41;;;1.48;100.00
28312;BME280;15572;48.810;9.148;2023-01-23T17:41:14;99466.22;;;1.43;100.00
28312;BME280;15572;48.810;9.148;2023-01-23T17:46:20;99477.84;;;1.42;100.00
28312;BME280;15572;48.810;9.148;2023-01-23T17:51:19;99477.41;;;1.48;100.00
28312;BME280;15572;48.810;9.148;2023-01-23T17:56:16;99469.94;;;1.53;100.00
28312;BME280;15572;48.810;9.148;2023-01-23T18:01:18;99472.94;;;1.49;100.00
28312;BME280;15572;48.810;9.148;2023-01-23T18:06:17;99477.63;;;1.45;100.00
28312;BME280;15572;48.810;9.148;2023-01-23T18:11:18;99478.47;;;1.58;100.00
28312;BME280;15572;48.810;9.148;2023-01-23T18:16:19;99492.47;;;1.49;100.00
28312;BME280;15572;48.810;9.148;2023-01-23T18:21:20;99487.97;;;1.50;100.00
28312;BME280;15572;48.810;9.148;2023-01-23T18:26:27;99485.97;;;1.53;100.00
28312;BME280;15572;48.810;9.148;2023-01-23T18:31:32;99491.28;;;1.53;100.00
28312;BME280;15572;48.810;9.148;2023-01-23T18:36:38;99488.31;;;1.45;100.00
28312;BME280;15572;48.810;9.148;2023-01-23T18:41:41;99489.81;;;1.49;100.00
28312;BME280;15572;48.810;9.148;2023-01-23T18:46:42;99480.28;;;1.45;100.00
28312;BME280;15572;48.810;9.148;2023-01-23T18:51:44;99466.63;;;1.50;100.00
28312;BME280;15572;48.810;9.148;2023-01-23T18:56:49;99470.66;;;1.55;100.00
28312;BME280;15572;48.810;9.148;2023-01-23T19:01:52;99480.63;;;1.53;100.00
28312;BME280;15572;48.810;9.148;2023-01-23T19:06:50;99472.28;;;1.58;100.00
28312;BME280;15572;48.810;9.148;2023-01-23T19:11:57;99471.53;;;1.56;100.00
28312;BME280;15572;48.810;9.148;2023-01-23T19:17:00;99466.41;;;1.53;100.00
28312;BME280;15572;48.810;9.148;2023-01-23T19:22:01;99456.44;;;1.67;100.00
28312;BME280;15572;48.810;9.148;2023-01-23T19:27:00;99440.47;;;1.55;100.00
28312;BME280;15572;48.810;9.148;2023-01-23T19:31:57;99458.69;;;1.61;100.00
28312;BME280;15572;48.810;9.148;2023-01-23T19:36:53;99463.19;;;1.60;100.00
28312;BME280;15572;48.810;9.148;2023-01-23T19:41:51;99467.47;;;1.63;100.00
28312;BME280;15572;48.810;9.148;2023-01-23T19:46:48;99486.91;;;1.65;100.00
28312;BME280;15572;48.810;9.148;2023-01-23T19:51:45;99488.59;;;1.66;100.00
28312;BME280;15572;48.810;9.148;2023-01-23T19:56:42;99495.34;;;1.59;100.00
28312;BME280;15572;48.810;9.148;2023-01-23T20:01:41;99497.88;;;1.60;100.00
28312;BME280;15572;48.810;9.148;2023-01-23T20:06:39;99501.75;;;1.56;100.00
28312;BME280;15572;48.810;9.148;2023-01-23T20:11:36;99508.03;;;1.55;100.00
28312;BME280;15572;48.810;9.148;2023-01-23T20:16:33;99493.00;;;1.54;100.00
28312;BME280;15572;48.810;9.148;2023-01-23T20:21:35;99506.88;;;1.59;100.00
28312;BME280;15572;48.810;9.148;2023-01-23T20:26:32;99511.56;;;1.56;100.00
28312;BME280;15572;48.810;9.148;2023-01-23T20:31:28;99509.56;;;1.59;100.00
28312;BME280;15572;48.810;9.148;2023-01-23T20:36:25;99516.47;;;1.62;100.00
28312;BME280;15572;48.810;9.148;2023-01-23T20:41:23;99513.91;;;1.60;100.00
28312;BME280;15572;48.810;9.148;2023-01-23T20:46:19;99506.75;;;1.61;100.00
28312;BME280;15572;48.810;9.148;2023-01-23T20:51:16;99517.13;;;1.65;100.00
28312;BME280;15572;48.810;9.148;2023-01-23T20:56:14;99506.75;;;1.74;100.00
28312;BME280;15572;48.810;9.148;2023-01-23T21:01:12;99507.88;;;1.82;100.00
28312;BME280;15572;48.810;9.148;2023-01-23T21:06:11;99524.03;;;1.81;100.00
28312;BME280;15572;48.810;9.148;2023-01-23T21:11:10;99517.84;;;1.80;100.00
28312;BME280;15572;48.810;9.148;2023-01-23T21:16:12;99512.19;;;1.85;100.00
28312;BME280;15572;48.810;9.148;2023-01-23T21:21:10;99514.00;;;1.84;100.00
28312;BME280;15572;48.810;9.148;2023-01-23T21:26:07;99528.81;;;1.88;100.00
28312;BME280;15572;48.810;9.148;2023-01-23T21:31:08;99527.00;;;1.89;100.00
28312;BME280;15572;48.810;9.148;2023-01-23T21:36:07;99532.34;;;1.89;100.00
28312;BME280;15572;48.810;9.148;2023-01-23T21:41:04;99531.50;;;1.88;100.00
28312;BME280;15572;48.810;9.148;2023-01-23T21:46:01;99537.59;;;1.90;100.00
28312;BME280;15572;48.810;9.148;2023-01-23T21:51:07;99525.81;;;1.93;100.00
28312;BME280;15572;48.810;9.148;2023-01-23T21:56:06;99499.75;;;1.96;100.00
28312;BME280;15572;48.810;9.148;2023-01-23T22:01:04;99500.94;;;1.92;100.00
28312;BME280;15572;48.810;9.148;2023-01-23T22:06:20;99513.75;;;1.87;100.00
28312;BME280;15572;48.810;9.148;2023-01-23T22:11:16;99521.66;;;1.89;100.00
28312;BME280;15572;48.810;9.148;2023-01-23T22:16:13;99531.41;;;1.90;100.00
28312;BME280;15572;48.810;9.148;2023-01-23T22:21:09;99532.16;;;1.92;100.00
28312;BME280;15572;48.810;9.148;2023-01-23T22:26:09;99543.69;;;1.92;100.00
28312;BME280;15572;48.810;9.148;2023-01-23T22:31:08;99541.75;;;1.94;100.00
28312;BME280;15572;48.810;9.148;2023-01-23T22:36:07;99541.63;;;1.96;100.00
28312;BME280;15572;48.810;9.148;2023-01-23T22:41:05;99539.94;;;1.95;100.00
28312;BME280;15572;48.810;9.148;2023-01-23T22:46:04;99537.16;;;1.96;100.00
28312;BME280;15572;48.810;9.148;2023-01-23T22:51:03;99546.97;;;1.96;100.00
28312;BME280;15572;48.810;9.148;2023-01-23T22:56:03;99530.97;;;1.96;100.00
28312;BME280;15572;48.810;9.148;2023-01-23T23:01:00;99543.34;;;1.97;100.00
28312;BME280;15572;48.810;9.148;2023-01-23T23:06:00;99547.84;;;1.96;100.00
28312;BME280;15572;48.810;9.148;2023-01-23T23:10:58;99547.19;;;1.93;100.00
28312;BME280;15572;48.810;9.148;2023-01-23T23:15:55;99542.69;;;1.93;100.00
28312;BME280;15572;48.810;9.148;2023-01-23T23:20:52;99544.31;;;1.96;100.00
28312;BME280;15572;48.810;9.148;2023-01-23T23:25:52;99545.28;;;1.95;100.00
28312;BME280;15572;48.810;9.148;2023-01-23T23:30:50;99551.56;;;1.94;100.00
28312;BME280;15572;48.810;9.148;2023-01-23T23:35:46;99545.50;;;1.92;100.00
28312;BME280;15572;48.810;9.148;2023-01-23T23:40:43;99546.22;;;1.94;100.00
28312;BME280;15572;48.810;9.148;2023-01-23T23:45:51;99548.78;;;1.95;100.00
28312;BME280;15572;48.810;9.148;2023-01-23T23:50:48;99546.13;;;1.95;100.00
28312;BME280;15572;48.810;9.148;2023-01-23T23:55:45;99551.47;;;1.95;100.00
